Pepperell, Massachusetts
Current Conditions -  °F | °C
As of 4:51 AM on Friday 21 Nov 2014 (Local Time) from KASH Reporting Station
Clear Clear  
Wind Chill: 19°   Ceiling: Unl
Heat Index: 26°   Visibility: 10mi
Dew Point: 12°   Wind: 6mph
Humidity: 55%   Direction: NA
Pressure: 29.97"   Gusts: NA
Location:  42.66°N, 71.6°W
Report Text: KASH 210951Z AUTO VRB05KT 10SM CLR M03/M11 A2997 RMK AO2 T10331111 SLP405
Loading
Personal Weather Stations






























Interactive Weather Map New forecast layout! Learn more

10-Day Weather Forecast

Advertisements
Track Severe Weather on mobile